Time;durP1;ratioP1;P1;durP2;ratioP2;P2;SDS_P1;SDS_P2;PMS_P1;PMS_P2;Temp;Humidity;BMP_temperature;BMP_pressure;BME280_temperature;BME280_humidity;BME280_pressure;Samples;Min_cycle;Max_cycle;Signal;HPM_P1;HPM_P2
2022/07/25 00:00:43;;;;;;;;;;;24.90;45.80;;;;;;4997961;28;19910;-91
2022/07/25 00:03:08;;;;;;;;;;;24.90;45.90;;;;;;4996979;28;20532;-91
2022/07/25 00:05:34;;;;;;;;;;;24.80;46.00;;;;;;5001387;28;19901;-91
2022/07/25 00:08:02;;;;;;;;;;;24.80;46.10;;;;;;5001736;28;19940;-91
2022/07/25 00:10:27;;;;;;;;;;;24.80;46.20;;;;;;5001063;28;20546;-91
2022/07/25 00:12:53;;;;;;;;;;;24.80;46.20;;;;;;4999569;28;19960;-91
2022/07/25 00:15:18;;;;;;;;;;;24.70;46.40;;;;;;5000178;28;19918;-92
2022/07/25 00:17:47;;;;;;;;;;;24.70;46.60;;;;;;5000615;28;19910;-91
2022/07/25 00:20:15;;;;;;;;;;;24.70;46.60;;;;;;4983634;28;19918;-91
2022/07/25 00:22:40;;;;;;;;;;;24.70;46.60;;;;;;5000873;28;19909;-91
2022/07/25 00:25:06;;;;;;;;;;;24.60;46.60;;;;;;5001172;28;19922;-91
2022/07/25 00:27:32;;;;;;;;;;;24.60;46.80;;;;;;4998218;28;19914;-91
2022/07/25 00:29:57;;;;;;;;;;;24.60;46.80;;;;;;4999723;28;19928;-90
2022/07/25 00:32:23;;;;;;;;;;;24.50;46.90;;;;;;4999740;28;19917;-91
2022/07/25 00:34:48;;;;;;;;;;;24.50;47.20;;;;;;5000325;28;19918;-89
2022/07/25 00:37:13;;;;;;;;;;;24.50;47.20;;;;;;4999643;28;19932;-91
2022/07/25 00:39:39;;;;;;;;;;;24.50;47.20;;;;;;5000758;28;19921;-91
2022/07/25 00:42:04;;;;;;;;;;;24.40;47.20;;;;;;5000172;28;19910;-91
2022/07/25 00:44:31;;;;;;;;;;;24.40;47.20;;;;;;4999378;28;20263;-91
2022/07/25 00:47:00;;;;;;;;;;;24.30;47.30;;;;;;4999652;28;19937;-91
2022/07/25 00:49:26;;;;;;;;;;;24.30;47.20;;;;;;4998702;28;19910;-91
2022/07/25 00:51:52;;;;;;;;;;;24.30;47.30;;;;;;4998894;28;19956;-91
2022/07/25 00:54:18;;;;;;;;;;;24.20;47.50;;;;;;5000101;28;19920;-91
2022/07/25 00:56:45;;;;;;;;;;;24.20;47.50;;;;;;5000747;28;19921;-91
2022/07/25 00:59:10;;;;;;;;;;;24.20;47.50;;;;;;4999316;28;19909;-91
2022/07/25 01:01:36;;;;;;;;;;;24.20;47.50;;;;;;4999350;28;19910;-91
2022/07/25 01:04:02;;;;;;;;;;;24.10;47.50;;;;;;4999807;28;19920;-91
2022/07/25 01:06:27;;;;;;;;;;;24.10;47.60;;;;;;4999259;28;20024;-92
2022/07/25 01:08:53;;;;;;;;;;;24.10;47.80;;;;;;4999870;28;19913;-91
2022/07/25 01:11:20;;;;;;;;;;;24.00;47.80;;;;;;4999331;28;19981;-92
2022/07/25 01:13:45;;;;;;;;;;;24.00;48.00;;;;;;4982696;28;19914;-91
2022/07/25 01:16:11;;;;;;;;;;;24.00;48.10;;;;;;4998990;28;19925;-91
2022/07/25 01:18:38;;;;;;;;;;;24.00;48.20;;;;;;4983746;28;20342;-90
2022/07/25 01:21:04;;;;;;;;;;;23.90;48.40;;;;;;4999884;28;19922;-91
2022/07/25 01:23:29;;;;;;;;;;;23.90;48.50;;;;;;4998824;28;19913;-91
2022/07/25 01:25:55;;;;;;;;;;;23.90;48.50;;;;;;5000695;28;20384;-91
2022/07/25 01:28:20;;;;;;;;;;;23.80;48.40;;;;;;4999465;28;19916;-91
2022/07/25 01:30:46;;;;;;;;;;;23.90;48.40;;;;;;5014985;28;19924;-91
2022/07/25 01:33:18;;;;;;;;;;;23.80;48.40;;;;;;4998210;28;20384;-91
2022/07/25 01:35:44;;;;;;;;;;;23.80;48.50;;;;;;4996805;28;19929;-91
2022/07/25 01:38:09;;;;;;;;;;;23.80;48.60;;;;;;4997900;28;20354;-90
2022/07/25 01:40:35;;;;;;;;;;;23.80;48.60;;;;;;4997882;28;19925;-91
2022/07/25 01:43:00;;;;;;;;;;;23.80;48.80;;;;;;4998776;28;19910;-91
2022/07/25 01:45:26;;;;;;;;;;;23.80;48.90;;;;;;4981714;28;19948;-91
2022/07/25 01:47:54;;;;;;;;;;;23.70;48.80;;;;;;4997352;28;19977;-91
2022/07/25 01:50:19;;;;;;;;;;;23.70;48.80;;;;;;4998869;28;19941;-90
2022/07/25 01:52:45;;;;;;;;;;;23.70;48.70;;;;;;4997796;28;20322;-91
2022/07/25 01:55:11;;;;;;;;;;;23.70;48.70;;;;;;4999166;28;19913;-91
2022/07/25 01:57:36;;;;;;;;;;;23.70;48.70;;;;;;4998928;28;19968;-90
2022/07/25 02:00:06;;;;;;;;;;;23.60;48.90;;;;;;4999009;28;19921;-91
2022/07/25 02:02:32;;;;;;;;;;;23.70;48.80;;;;;;4999309;28;19924;-91
2022/07/25 02:04:57;;;;;;;;;;;23.70;49.10;;;;;;5015306;28;19918;-91
2022/07/25 02:07:22;;;;;;;;;;;23.60;49.20;;;;;;5015459;28;20007;-91
2022/07/25 02:09:48;;;;;;;;;;;23.60;49.20;;;;;;5014423;28;20294;-90
2022/07/25 02:12:14;;;;;;;;;;;23.60;49.20;;;;;;5015680;28;19989;-91
2022/07/25 02:14:39;;;;;;;;;;;23.60;49.20;;;;;;4998052;28;19921;-92
2022/07/25 02:17:05;;;;;;;;;;;23.60;49.20;;;;;;4998863;28;20318;-91
2022/07/25 02:19:30;;;;;;;;;;;23.60;49.20;;;;;;5013792;28;19969;-92
2022/07/25 02:21:56;;;;;;;;;;;23.60;49.20;;;;;;4998315;28;20000;-92
2022/07/25 02:24:21;;;;;;;;;;;23.50;49.20;;;;;;4998827;28;20024;-92
2022/07/25 02:26:47;;;;;;;;;;;23.50;49.20;;;;;;4998795;28;19914;-92
2022/07/25 02:29:12;;;;;;;;;;;23.50;49.20;;;;;;4999336;28;19956;-92
2022/07/25 02:31:38;;;;;;;;;;;23.40;49.20;;;;;;4999455;28;19913;-92
2022/07/25 02:34:03;;;;;;;;;;;23.40;49.20;;;;;;4998393;28;19917;-92
2022/07/25 02:36:29;;;;;;;;;;;23.40;49.20;;;;;;4998432;28;19905;-92
2022/07/25 02:38:54;;;;;;;;;;;23.40;49.30;;;;;;4997779;28;19972;-91
2022/07/25 02:41:20;;;;;;;;;;;23.40;49.20;;;;;;4997478;28;19924;-92
2022/07/25 02:43:45;;;;;;;;;;;23.40;49.30;;;;;;4996874;28;19945;-92
2022/07/25 02:46:11;;;;;;;;;;;23.30;49.20;;;;;;4999723;28;20342;-92
2022/07/25 02:48:36;;;;;;;;;;;23.30;49.20;;;;;;5014266;28;19918;-92
2022/07/25 02:51:02;;;;;;;;;;;23.30;49.20;;;;;;4998736;28;20381;-93
2022/07/25 02:53:27;;;;;;;;;;;23.20;49.30;;;;;;4997216;28;20408;-92
2022/07/25 02:55:53;;;;;;;;;;;23.20;49.40;;;;;;4998471;28;20374;-92
2022/07/25 02:58:18;;;;;;;;;;;23.20;49.50;;;;;;4996809;28;20013;-92
2022/07/25 03:00:44;;;;;;;;;;;23.20;49.50;;;;;;4998189;28;19917;-93
2022/07/25 03:03:09;;;;;;;;;;;23.20;49.60;;;;;;4985520;28;19976;-92
2022/07/25 03:05:35;;;;;;;;;;;23.10;49.60;;;;;;4991734;28;19921;-91
2022/07/25 03:08:00;;;;;;;;;;;23.10;49.60;;;;;;5014008;28;19914;-91
2022/07/25 03:10:26;;;;;;;;;;;23.10;49.80;;;;;;5012083;28;19910;-92
2022/07/25 03:12:51;;;;;;;;;;;23.10;49.80;;;;;;5000184;28;19910;-92
2022/07/25 03:15:17;;;;;;;;;;;23.10;49.80;;;;;;4996660;28;19918;-92
2022/07/25 03:17:42;;;;;;;;;;;23.10;49.80;;;;;;4996356;28;20417;-93
2022/07/25 03:20:08;;;;;;;;;;;23.10;49.80;;;;;;4995630;28;19922;-92
2022/07/25 03:22:34;;;;;;;;;;;23.10;49.80;;;;;;4999610;28;19917;-92
2022/07/25 03:24:59;;;;;;;;;;;23.10;49.80;;;;;;4976195;28;19922;-92
2022/07/25 03:27:26;;;;;;;;;;;23.10;49.80;;;;;;5011242;28;19964;-92
2022/07/25 03:29:53;;;;;;;;;;;23.00;49.80;;;;;;5011634;28;19956;-92
2022/07/25 03:32:18;;;;;;;;;;;23.00;49.80;;;;;;4983518;28;19918;-92
2022/07/25 03:34:44;;;;;;;;;;;23.00;49.80;;;;;;4996702;28;20289;-91
2022/07/25 03:37:09;;;;;;;;;;;23.00;49.80;;;;;;4995635;28;20318;-92
2022/07/25 03:39:35;;;;;;;;;;;22.90;49.90;;;;;;4997881;28;19922;-92
2022/07/25 03:42:00;;;;;;;;;;;22.90;50.00;;;;;;5008236;28;19936;-92
2022/07/25 03:44:26;;;;;;;;;;;23.00;50.10;;;;;;5011927;28;20005;-93
2022/07/25 03:46:51;;;;;;;;;;;23.00;50.20;;;;;;4987998;28;19921;-91
2022/07/25 03:49:17;;;;;;;;;;;23.00;50.20;;;;;;4999487;28;20390;-93
2022/07/25 03:51:43;;;;;;;;;;;23.00;50.30;;;;;;5000203;28;20322;-92
2022/07/25 03:54:12;;;;;;;;;;;23.00;50.50;;;;;;4999131;28;19913;-91
2022/07/25 03:56:45;;;;;;;;;;;23.10;50.70;;;;;;4998943;28;19945;-92
2022/07/25 03:59:11;;;;;;;;;;;23.20;50.80;;;;;;5009955;28;20405;-92
2022/07/25 04:01:37;;;;;;;;;;;23.30;51.00;;;;;;5000907;28;19914;-92
2022/07/25 04:04:03;;;;;;;;;;;23.50;51.20;;;;;;4994595;28;19920;-91
2022/07/25 04:06:29;;;;;;;;;;;23.70;51.10;;;;;;4982963;28;19925;-92
2022/07/25 04:08:55;;;;;;;;;;;23.80;51.10;;;;;;4991959;28;19917;-91
2022/07/25 04:11:20;;;;;;;;;;;24.10;51.00;;;;;;4993958;28;20390;-92
2022/07/25 04:13:46;;;;;;;;;;;24.30;50.80;;;;;;5014098;28;19922;-92
2022/07/25 04:16:12;;;;;;;;;;;24.60;50.60;;;;;;4992440;28;19924;-91
2022/07/25 04:18:37;;;;;;;;;;;24.90;50.40;;;;;;5015505;28;19921;-93
2022/07/25 04:21:03;;;;;;;;;;;25.20;50.10;;;;;;4999644;28;19917;-92
2022/07/25 04:23:29;;;;;;;;;;;25.40;49.90;;;;;;4998992;28;19914;-91
2022/07/25 04:25:54;;;;;;;;;;;25.80;49.50;;;;;;5011863;28;19960;-92
2022/07/25 04:28:20;;;;;;;;;;;26.10;49.10;;;;;;5011514;28;19914;-93
2022/07/25 04:30:46;;;;;;;;;;;26.40;48.80;;;;;;5006335;28;20421;-92
2022/07/25 04:33:12;;;;;;;;;;;26.80;48.20;;;;;;5018665;28;19925;-91
2022/07/25 04:35:37;;;;;;;;;;;27.10;47.60;;;;;;5019890;28;19917;-90
2022/07/25 04:38:03;;;;;;;;;;;27.40;47.30;;;;;;5006986;28;19916;-90
2022/07/25 04:40:28;;;;;;;;;;;27.80;46.80;;;;;;4999018;28;20346;-90
2022/07/25 04:42:54;;;;;;;;;;;28.20;46.40;;;;;;5014810;28;19914;-90
2022/07/25 04:45:19;;;;;;;;;;;28.50;45.70;;;;;;5015839;28;19926;-89
2022/07/25 04:47:45;;;;;;;;;;;28.90;44.90;;;;;;4999947;28;19920;-89
2022/07/25 04:50:10;;;;;;;;;;;29.30;44.40;;;;;;4995983;28;19917;-91
2022/07/25 04:52:36;;;;;;;;;;;29.70;43.40;;;;;;4999714;28;19898;-89
2022/07/25 04:55:02;;;;;;;;;;;30.00;42.40;;;;;;4997917;28;19921;-90
2022/07/25 04:57:28;;;;;;;;;;;30.30;41.80;;;;;;4993696;28;20359;-90
2022/07/25 04:59:55;;;;;;;;;;;30.70;41.30;;;;;;4991923;28;19922;-90
2022/07/25 05:02:20;;;;;;;;;;;30.90;40.70;;;;;;4980467;28;19922;-91
2022/07/25 05:04:46;;;;;;;;;;;31.30;40.20;;;;;;4997819;28;19968;-90
2022/07/25 05:07:11;;;;;;;;;;;31.70;39.70;;;;;;4999371;28;19914;-90
2022/07/25 05:09:37;;;;;;;;;;;32.00;39.20;;;;;;4987981;28;19925;-91
2022/07/25 05:12:02;;;;;;;;;;;32.40;38.40;;;;;;4996488;28;19913;-91
2022/07/25 05:14:28;;;;;;;;;;;32.80;37.70;;;;;;4989863;28;19918;-91
2022/07/25 05:16:53;;;;;;;;;;;33.10;36.90;;;;;;5010539;28;20016;-91
2022/07/25 05:19:19;;;;;;;;;;;33.50;36.30;;;;;;4998500;28;19913;-91
2022/07/25 05:21:44;;;;;;;;;;;33.80;35.70;;;;;;4997819;28;19956;-91
2022/07/25 05:24:10;;;;;;;;;;;34.10;34.90;;;;;;4997969;28;19925;-92
2022/07/25 05:26:35;;;;;;;;;;;34.40;34.40;;;;;;4998095;28;19914;-91
2022/07/25 05:29:01;;;;;;;;;;;34.70;34.20;;;;;;4998067;28;19936;-91
2022/07/25 05:31:26;;;;;;;;;;;35.20;33.90;;;;;;4996970;28;20036;-90
2022/07/25 05:33:52;;;;;;;;;;;35.60;33.20;;;;;;4997446;28;20263;-92
2022/07/25 05:36:17;;;;;;;;;;;36.00;32.60;;;;;;5013428;28;19919;-91
2022/07/25 05:38:43;;;;;;;;;;;36.30;32.20;;;;;;4997610;28;19921;-91
2022/07/25 05:41:08;;;;;;;;;;;36.80;31.50;;;;;;4981180;28;20020;-91
2022/07/25 05:43:34;;;;;;;;;;;37.10;31.10;;;;;;4992597;28;19937;-90
2022/07/25 05:46:03;;;;;;;;;;;37.40;30.70;;;;;;4991208;28;19921;-91
2022/07/25 05:48:28;;;;;;;;;;;37.90;30.30;;;;;;4995448;28;19922;-92
2022/07/25 05:50:54;;;;;;;;;;;38.30;29.70;;;;;;4992807;28;20024;-90
2022/07/25 05:53:19;;;;;;;;;;;38.80;29.40;;;;;;4999492;28;19922;-91
2022/07/25 05:55:45;;;;;;;;;;;39.20;28.70;;;;;;5015700;28;20270;-91
2022/07/25 05:58:10;;;;;;;;;;;39.50;28.00;;;;;;5006847;28;19965;-90
2022/07/25 06:00:36;;;;;;;;;;;39.80;27.60;;;;;;5001801;28;19989;-91
2022/07/25 06:03:02;;;;;;;;;;;40.10;27.20;;;;;;5004129;28;19928;-91
2022/07/25 06:05:27;;;;;;;;;;;40.40;26.80;;;;;;5010634;28;19917;-90
2022/07/25 06:07:52;;;;;;;;;;;40.50;26.40;;;;;;4999333;28;19925;-90
2022/07/25 06:10:18;;;;;;;;;;;40.50;26.40;;;;;;4996209;28;19921;-90
2022/07/25 06:12:44;;;;;;;;;;;40.70;26.30;;;;;;4997192;28;19918;-91
2022/07/25 06:15:10;;;;;;;;;;;40.90;26.20;;;;;;5004303;28;20001;-91
2022/07/25 06:17:35;;;;;;;;;;;41.00;25.90;;;;;;4999235;28;19917;-91
2022/07/25 06:20:00;;;;;;;;;;;40.90;25.70;;;;;;5000606;28;19991;-90
2022/07/25 06:22:26;;;;;;;;;;;41.00;25.60;;;;;;5013383;28;19918;-90
2022/07/25 06:24:51;;;;;;;;;;;41.00;25.50;;;;;;5004253;28;19914;-91
2022/07/25 06:27:17;;;;;;;;;;;41.20;25.40;;;;;;5007492;28;19924;-91
2022/07/25 06:29:42;;;;;;;;;;;41.30;25.40;;;;;;4999802;28;19932;-90
2022/07/25 06:32:08;;;;;;;;;;;41.50;25.70;;;;;;5005057;28;19922;-91
2022/07/25 06:34:33;;;;;;;;;;;41.70;25.40;;;;;;5007874;28;20028;-90
2022/07/25 06:36:59;;;;;;;;;;;42.00;25.10;;;;;;4997823;28;19922;-91
2022/07/25 06:39:27;;;;;;;;;;;42.00;24.80;;;;;;5010246;28;19985;-90
2022/07/25 06:41:52;;;;;;;;;;;42.10;24.60;;;;;;5004219;28;19922;-90
2022/07/25 06:44:18;;;;;;;;;;;42.20;24.50;;;;;;5010062;28;19917;-90
2022/07/25 06:46:43;;;;;;;;;;;42.30;24.60;;;;;;5013395;28;19966;-90
2022/07/25 06:49:09;;;;;;;;;;;42.40;24.50;;;;;;5005183;28;19910;-90
2022/07/25 06:51:34;;;;;;;;;;;42.30;24.30;;;;;;4998669;28;19930;-91
2022/07/25 06:54:00;;;;;;;;;;;42.20;24.00;;;;;;5010602;28;19960;-90
2022/07/25 06:56:30;;;;;;;;;;;42.00;24.10;;;;;;5000241;28;19914;-90
2022/07/25 06:58:56;;;;;;;;;;;41.80;24.30;;;;;;5009333;28;19948;-91
2022/07/25 07:01:21;;;;;;;;;;;41.80;24.60;;;;;;5011531;28;19909;-91
2022/07/25 07:03:47;;;;;;;;;;;41.90;24.60;;;;;;5004667;28;19921;-91
2022/07/25 07:06:12;;;;;;;;;;;41.90;24.30;;;;;;5005376;28;19910;-90
2022/07/25 07:08:38;;;;;;;;;;;41.90;24.20;;;;;;4997935;28;19914;-91
2022/07/25 07:11:03;;;;;;;;;;;41.70;22.80;;;;;;4998324;28;19992;-91
2022/07/25 07:13:29;;;;;;;;;;;41.50;22.60;;;;;;5011005;28;19992;-91
2022/07/25 07:15:54;;;;;;;;;;;41.50;22.60;;;;;;5006716;28;20393;-91
2022/07/25 07:18:20;;;;;;;;;;;41.50;22.80;;;;;;5000531;28;19922;-91
2022/07/25 07:20:46;;;;;;;;;;;41.70;22.50;;;;;;5014090;28;19910;-90
2022/07/25 07:23:12;;;;;;;;;;;41.70;22.00;;;;;;5019192;28;19995;-90
2022/07/25 07:25:37;;;;;;;;;;;41.70;21.80;;;;;;5007983;28;19914;-90
2022/07/25 07:28:03;;;;;;;;;;;41.80;21.90;;;;;;5006084;28;20338;-90
2022/07/25 07:30:29;;;;;;;;;;;42.10;22.10;;;;;;5012461;28;19917;-90
2022/07/25 07:32:55;;;;;;;;;;;42.40;22.00;;;;;;5016920;28;19922;-91
2022/07/25 07:35:20;;;;;;;;;;;42.70;21.10;;;;;;5009387;28;19989;-86
2022/07/25 07:37:46;;;;;;;;;;;42.70;20.90;;;;;;4998290;28;19924;-86
2022/07/25 07:40:12;;;;;;;;;;;42.70;20.90;;;;;;5003210;28;19931;-85
2022/07/25 07:42:39;;;;;;;;;;;42.80;21.10;;;;;;5013187;28;20468;-85
2022/07/25 07:45:15;;;;;;;;;;;42.90;21.00;;;;;;5006792;28;19924;-84
2022/07/25 07:47:41;;;;;;;;;;;43.00;21.10;;;;;;5001545;28;19928;-84
2022/07/25 07:50:07;;;;;;;;;;;43.10;21.00;;;;;;5007524;28;19996;-84
2022/07/25 07:52:32;;;;;;;;;;;43.10;20.80;;;;;;5002944;28;19921;-84
2022/07/25 07:57:42;;;;;;;;;;;43.50;20.60;;;;;;5000842;28;19985;-84
2022/07/25 08:00:07;;;;;;;;;;;43.50;20.40;;;;;;5002820;28;20481;-85
2022/07/25 08:02:40;;;;;;;;;;;43.50;20.30;;;;;;5005855;28;20000;-84
2022/07/25 08:05:07;;;;;;;;;;;43.80;20.60;;;;;;5001600;28;19921;-85
2022/07/25 08:07:32;;;;;;;;;;;43.90;20.20;;;;;;5005095;28;19921;-84
2022/07/25 08:09:58;;;;;;;;;;;43.90;19.90;;;;;;5009281;28;19921;-83
2022/07/25 08:12:25;;;;;;;;;;;43.80;19.90;;;;;;5006587;28;19956;-84
2022/07/25 08:14:51;;;;;;;;;;;43.80;19.80;;;;;;5001257;28;19921;-84
2022/07/25 08:17:16;;;;;;;;;;;43.70;19.80;;;;;;5000322;28;19926;-85
2022/07/25 08:19:42;;;;;;;;;;;43.70;20.00;;;;;;5013325;28;19913;-84
2022/07/25 08:22:08;;;;;;;;;;;43.80;20.20;;;;;;5003051;28;19922;-84
2022/07/25 08:24:33;;;;;;;;;;;44.00;20.20;;;;;;5002598;28;20653;-84
2022/07/25 08:26:59;;;;;;;;;;;44.40;20.10;;;;;;4997739;28;20036;-84
2022/07/25 08:29:24;;;;;;;;;;;44.90;20.00;;;;;;5019759;28;19918;-83
2022/07/25 08:31:50;;;;;;;;;;;45.40;19.90;;;;;;5005637;28;19918;-84
2022/07/25 08:34:21;;;;;;;;;;;46.00;19.40;;;;;;5012842;28;19917;-84
2022/07/25 08:36:47;;;;;;;;;;;46.20;19.00;;;;;;4997570;28;19917;-85
2022/07/25 08:39:12;;;;;;;;;;;46.30;18.40;;;;;;5003111;28;20393;-85
2022/07/25 08:41:41;;;;;;;;;;;46.60;18.50;;;;;;5003124;28;19926;-84
2022/07/25 08:44:07;;;;;;;;;;;46.80;18.20;;;;;;5000485;28;19964;-84
2022/07/25 08:46:33;;;;;;;;;;;47.10;18.30;;;;;;5002569;28;19922;-85
2022/07/25 08:48:59;;;;;;;;;;;47.30;18.00;;;;;;4997912;28;19988;-85
2022/07/25 08:51:24;;;;;;;;;;;47.40;18.00;;;;;;5002797;28;20016;-84
2022/07/25 08:53:50;;;;;;;;;;;47.50;17.90;;;;;;5009966;28;19920;-84
2022/07/25 08:56:15;;;;;;;;;;;47.30;17.50;;;;;;4998869;28;19914;-85
2022/07/25 08:58:40;;;;;;;;;;;47.10;17.70;;;;;;4997209;28;20602;-84
2022/07/25 09:01:06;;;;;;;;;;;47.00;18.00;;;;;;4994927;28;20408;-84
2022/07/25 09:03:32;;;;;;;;;;;47.00;18.10;;;;;;5000464;28;20405;-84
2022/07/25 09:05:57;;;;;;;;;;;46.90;17.90;;;;;;4988418;28;19922;-84
2022/07/25 09:08:23;;;;;;;;;;;46.60;17.90;;;;;;4994174;28;19929;-85
2022/07/25 09:10:49;;;;;;;;;;;46.40;18.10;;;;;;5001960;28;19909;-85
2022/07/25 09:13:15;;;;;;;;;;;46.30;18.30;;;;;;5002467;28;20394;-84
2022/07/25 09:15:52;;;;;;;;;;;46.20;18.50;;;;;;5007742;28;19920;-84
2022/07/25 09:18:24;;;;;;;;;;;46.20;18.60;;;;;;4989628;28;20283;-84
2022/07/25 09:20:52;;;;;;;;;;;46.30;18.40;;;;;;4995470;28;19913;-84
2022/07/25 09:23:30;;;;;;;;;;;46.40;18.40;;;;;;5003893;28;19922;-84
2022/07/25 09:26:05;;;;;;;;;;;46.50;18.40;;;;;;4998969;28;20385;-84
2022/07/25 09:28:31;;;;;;;;;;;46.50;18.10;;;;;;4999124;28;20335;-84
2022/07/25 09:30:58;;;;;;;;;;;46.50;18.00;;;;;;5000766;28;19949;-84
2022/07/25 09:33:24;;;;;;;;;;;46.50;18.20;;;;;;4997674;28;19960;-84
2022/07/25 09:35:50;;;;;;;;;;;46.60;18.10;;;;;;5003982;28;19910;-84
2022/07/25 09:38:16;;;;;;;;;;;46.70;18.00;;;;;;4994569;28;19928;-84
2022/07/25 09:40:52;;;;;;;;;;;46.70;17.80;;;;;;5002485;28;19917;-84
2022/07/25 09:43:18;;;;;;;;;;;46.60;17.60;;;;;;5001214;28;20673;-84
2022/07/25 09:45:52;;;;;;;;;;;46.40;17.30;;;;;;5002100;28;19917;-85
2022/07/25 09:48:19;;;;;;;;;;;46.20;17.50;;;;;;5000933;28;19922;-84
2022/07/25 09:50:45;;;;;;;;;;;46.10;17.50;;;;;;4997666;28;20032;-84
2022/07/25 09:53:10;;;;;;;;;;;45.80;17.70;;;;;;5001076;28;20024;-84
2022/07/25 09:55:36;;;;;;;;;;;45.70;17.80;;;;;;5002923;28;20356;-85
2022/07/25 09:58:01;;;;;;;;;;;45.50;17.80;;;;;;5005880;28;20649;-85
2022/07/25 10:00:28;;;;;;;;;;;45.40;17.70;;;;;;5009592;28;20413;-84
2022/07/25 10:02:53;;;;;;;;;;;45.10;17.50;;;;;;5001281;28;20548;-84
2022/07/25 10:05:22;;;;;;;;;;;44.80;17.80;;;;;;5003241;28;19922;-84
2022/07/25 10:07:49;;;;;;;;;;;44.60;18.10;;;;;;4989647;28;19933;-85
2022/07/25 10:10:28;;;;;;;;;;;44.40;18.40;;;;;;5001846;28;20393;-84
2022/07/25 10:12:57;;;;;;;;;;;44.30;18.70;;;;;;5000977;28;19921;-84
2022/07/25 10:15:23;;;;;;;;;;;44.20;18.90;;;;;;5005054;28;19914;-84
2022/07/25 10:17:50;;;;;;;;;;;44.00;19.20;;;;;;5003682;28;20347;-84
2022/07/25 10:20:25;;;;;;;;;;;43.90;19.30;;;;;;5001500;28;19910;-84
2022/07/25 10:22:51;;;;;;;;;;;43.60;19.50;;;;;;4999926;28;20580;-84
2022/07/25 10:25:18;;;;;;;;;;;43.30;19.70;;;;;;5000036;28;19996;-84
2022/07/25 10:27:47;;;;;;;;;;;43.20;19.90;;;;;;4996904;28;19922;-84
2022/07/25 10:30:42;;;;;;;;;;;43.20;20.10;;;;;;5010495;28;20259;-85
2022/07/25 10:33:12;;;;;;;;;;;43.10;20.20;;;;;;4980336;28;20016;-84
2022/07/25 10:35:38;;;;;;;;;;;43.10;20.30;;;;;;5001271;28;19937;-85
2022/07/25 10:38:04;;;;;;;;;;;43.30;20.40;;;;;;5004685;28;20492;-84
2022/07/25 10:40:32;;;;;;;;;;;43.50;20.40;;;;;;5009171;28;19929;-85
2022/07/25 10:43:04;;;;;;;;;;;43.80;20.30;;;;;;5006426;28;20401;-84
2022/07/25 10:45:37;;;;;;;;;;;43.90;20.30;;;;;;4996812;28;20702;-84
2022/07/25 10:48:05;;;;;;;;;;;44.00;20.10;;;;;;4990166;28;19967;-84
2022/07/25 10:50:31;;;;;;;;;;;44.10;19.90;;;;;;4999418;28;20001;-84
2022/07/25 10:53:06;;;;;;;;;;;44.20;19.90;;;;;;4997985;28;20025;-84
2022/07/25 10:55:34;;;;;;;;;;;44.70;20.00;;;;;;4998929;28;19914;-84
2022/07/25 10:58:00;;;;;;;;;;;45.30;19.70;;;;;;4998706;28;19949;-84
2022/07/25 11:00:26;;;;;;;;;;;46.00;19.10;;;;;;4996682;28;20712;-84
2022/07/25 11:02:54;;;;;;;;;;;46.70;18.90;;;;;;5000027;28;20006;-85
2022/07/25 11:05:20;;;;;;;;;;;47.50;18.60;;;;;;4999907;28;19918;-84
2022/07/25 11:07:52;;;;;;;;;;;48.30;18.10;;;;;;4999526;28;19921;-85
2022/07/25 11:10:24;;;;;;;;;;;48.80;17.30;;;;;;5000926;28;19913;-85
2022/07/25 11:12:50;;;;;;;;;;;49.00;16.80;;;;;;5005739;28;19921;-85
2022/07/25 11:15:20;;;;;;;;;;;48.60;16.20;;;;;;5001189;28;19913;-84
2022/07/25 11:17:49;;;;;;;;;;;48.30;16.30;;;;;;5011225;28;19918;-84
2022/07/25 11:20:15;;;;;;;;;;;48.00;16.40;;;;;;5008531;28;19910;-84
2022/07/25 11:22:40;;;;;;;;;;;48.10;16.70;;;;;;4998297;28;19921;-84
2022/07/25 11:25:10;;;;;;;;;;;48.50;16.90;;;;;;5000710;28;19923;-84
2022/07/25 11:27:35;;;;;;;;;;;48.70;16.80;;;;;;5000067;28;19923;-85
2022/07/25 11:30:07;;;;;;;;;;;48.60;16.70;;;;;;4998949;28;19918;-84
2022/07/25 11:32:39;;;;;;;;;;;48.30;16.70;;;;;;4997246;28;19922;-84
2022/07/25 11:35:05;;;;;;;;;;;47.90;16.70;;;;;;5001066;28;20236;-89
2022/07/25 11:37:34;;;;;;;;;;;47.60;17.00;;;;;;4994955;28;20029;-89
2022/07/25 11:39:59;;;;;;;;;;;47.50;17.20;;;;;;5007778;28;19918;-90
2022/07/25 11:42:26;;;;;;;;;;;47.40;17.40;;;;;;4995399;28;20354;-90
2022/07/25 11:44:53;;;;;;;;;;;47.30;17.30;;;;;;4999244;28;19914;-90
2022/07/25 11:47:29;;;;;;;;;;;47.10;17.60;;;;;;5022042;28;19922;-89
2022/07/25 11:49:56;;;;;;;;;;;46.80;17.70;;;;;;5008386;28;19910;-89
2022/07/25 11:52:32;;;;;;;;;;;46.60;17.70;;;;;;5007141;28;19922;-90
2022/07/25 11:55:11;;;;;;;;;;;46.10;17.60;;;;;;4996341;28;20453;-87
2022/07/25 11:57:37;;;;;;;;;;;45.60;17.90;;;;;;5003446;28;19980;-88
2022/07/25 12:00:06;;;;;;;;;;;45.10;18.30;;;;;;4999668;28;19918;-89
2022/07/25 12:02:33;;;;;;;;;;;44.70;18.40;;;;;;4998769;28;19925;-88
2022/07/25 12:05:02;;;;;;;;;;;44.40;18.80;;;;;;5007668;28;20296;-89
2022/07/25 12:07:37;;;;;;;;;;;44.30;19.10;;;;;;4998949;28;19922;-89
2022/07/25 12:10:02;;;;;;;;;;;44.00;19.50;;;;;;5005848;28;19909;-88
2022/07/25 12:12:28;;;;;;;;;;;43.70;19.80;;;;;;5002563;28;19922;-88
2022/07/25 12:14:53;;;;;;;;;;;43.50;19.90;;;;;;5004888;28;19914;-88
2022/07/25 12:17:19;;;;;;;;;;;43.40;19.90;;;;;;5000762;28;20318;-89
2022/07/25 12:19:46;;;;;;;;;;;43.60;19.90;;;;;;5002064;28;19914;-89
2022/07/25 12:22:11;;;;;;;;;;;43.70;19.90;;;;;;5025197;28;19918;-89
2022/07/25 12:24:37;;;;;;;;;;;43.70;19.70;;;;;;5004041;28;20009;-89
2022/07/25 12:27:02;;;;;;;;;;;44.10;19.80;;;;;;5020313;28;20338;-89
2022/07/25 12:29:28;;;;;;;;;;;44.80;19.60;;;;;;5002972;28;19914;-90
2022/07/25 12:31:53;;;;;;;;;;;45.80;19.20;;;;;;4988990;28;19922;-89
2022/07/25 12:34:19;;;;;;;;;;;46.70;18.70;;;;;;4975669;28;20656;-89
2022/07/25 12:36:47;;;;;;;;;;;47.30;18.00;;;;;;5003041;28;19922;-90
2022/07/25 12:39:13;;;;;;;;;;;48.00;17.90;;;;;;4994206;28;19929;-88
2022/07/25 12:41:41;;;;;;;;;;;48.50;17.30;;;;;;4995275;28;19918;-89
2022/07/25 12:44:06;;;;;;;;;;;48.80;17.00;;;;;;5007444;28;20021;-89
2022/07/25 12:46:37;;;;;;;;;;;49.00;16.60;;;;;;4998631;28;20064;-89
2022/07/25 12:49:02;;;;;;;;;;;49.30;16.60;;;;;;4997976;28;20342;-89
2022/07/25 12:51:27;;;;;;;;;;;49.50;16.40;;;;;;5006979;28;20010;-89
2022/07/25 12:53:53;;;;;;;;;;;49.60;16.30;;;;;;5001230;28;20652;-90
2022/07/25 12:56:18;;;;;;;;;;;49.70;16.10;;;;;;4995766;28;20388;-90
2022/07/25 12:58:44;;;;;;;;;;;49.70;16.10;;;;;;5002177;28;20370;-91
2022/07/25 13:01:12;;;;;;;;;;;49.40;16.10;;;;;;5000714;28;19914;-90
2022/07/25 13:03:37;;;;;;;;;;;48.70;16.20;;;;;;5009929;28;20380;-91
2022/07/25 13:06:03;;;;;;;;;;;48.70;16.40;;;;;;4995094;28;20004;-89
2022/07/25 13:08:28;;;;;;;;;;;48.80;16.30;;;;;;4999730;28;20389;-89
2022/07/25 13:10:54;;;;;;;;;;;49.00;16.40;;;;;;4996853;28;20474;-89
2022/07/25 13:13:19;;;;;;;;;;;49.20;16.10;;;;;;4997601;28;20000;-89
2022/07/25 13:15:45;;;;;;;;;;;49.00;16.10;;;;;;5009655;28;20371;-89
2022/07/25 13:18:10;;;;;;;;;;;48.80;16.10;;;;;;4999084;28;19925;-89
2022/07/25 13:20:36;;;;;;;;;;;48.50;16.30;;;;;;4994462;28;19925;-88
2022/07/25 13:23:02;;;;;;;;;;;47.80;16.60;;;;;;4995210;28;19910;-89
2022/07/25 13:25:27;;;;;;;;;;;47.20;17.10;;;;;;4997553;28;19928;-89
2022/07/25 13:27:53;;;;;;;;;;;47.30;17.40;;;;;;5001607;28;20008;-89
2022/07/25 13:30:18;;;;;;;;;;;47.20;17.60;;;;;;4998373;28;19925;-89
2022/07/25 13:32:44;;;;;;;;;;;47.00;17.70;;;;;;4993640;28;21209;-89
2022/07/25 13:35:09;;;;;;;;;;;47.20;17.60;;;;;;4999042;28;20633;-89
2022/07/25 13:37:35;;;;;;;;;;;47.30;17.70;;;;;;5003512;28;19917;-88
2022/07/25 13:40:01;;;;;;;;;;;47.10;17.90;;;;;;5007470;28;20055;-89
2022/07/25 13:42:26;;;;;;;;;;;46.60;18.00;;;;;;4999178;28;20293;-89
2022/07/25 13:44:52;;;;;;;;;;;46.10;18.40;;;;;;5002664;28;19921;-89
2022/07/25 13:47:17;;;;;;;;;;;45.60;18.60;;;;;;5009143;28;19967;-89
2022/07/25 13:49:43;;;;;;;;;;;45.50;18.80;;;;;;5006374;28;19917;-89
2022/07/25 13:52:08;;;;;;;;;;;45.30;18.90;;;;;;5012777;28;19926;-88
2022/07/25 13:54:34;;;;;;;;;;;45.20;19.10;;;;;;5003695;28;19914;-89
2022/07/25 13:57:00;;;;;;;;;;;44.90;19.20;;;;;;5011194;28;19922;-88
2022/07/25 13:59:25;;;;;;;;;;;44.80;19.40;;;;;;5008606;28;19910;-89
2022/07/25 14:01:51;;;;;;;;;;;44.70;19.60;;;;;;5007952;28;19980;-89
2022/07/25 14:04:16;;;;;;;;;;;45.00;19.60;;;;;;5000635;28;20416;-88
2022/07/25 14:06:42;;;;;;;;;;;45.50;19.50;;;;;;5001297;28;19957;-88
2022/07/25 14:09:07;;;;;;;;;;;45.60;19.40;;;;;;5002999;28;20378;-89
2022/07/25 14:11:33;;;;;;;;;;;45.40;19.50;;;;;;5003368;28;19937;-88
2022/07/25 14:13:58;;;;;;;;;;;45.30;19.70;;;;;;4998889;28;20028;-88